Weather at Casper-Natrona County International Airport

Public forecast

Using degrees Fahrenheit for public forecast. Weather courtesy of forecast.io.

Current aviation weather report (METAR) for Casper-Natrona County International Airport

2024/05/22 06:53 (retrieved 30 minutes ago)

KCPR 220653Z AUTO 23007KT 10SM CLR 00/M01 A3001 RMK AO2 SLP163 T00001006 400780000

Aviation forecast (TAF) for Casper-Natrona County International Airport

2024/05/22 06:27 (retrieved 56 minutes ago)

TAF KCPR 220524Z 2206/2306 23010KT P6SM SKC FM221400 22016G25KT P6SM FEW100 FM221600 23022G32KT P6SM BKN100 FM230200 24010KT P6SM SCT100 SCT200